Terminal Aerodrome Forecast
Issued by NWS Upton, NY

Home | Current Version | Previous Version | Text Only | Print | Product List | Glossary On
Versions: 1 2 3 4 5 6 7 8 9 10 11 12 13 14 15 16 17 18 19 20 21 22 23 24 25 26 27
000
FTUS41 KOKX 302300
TAFJFK
TAF
KJFK 302340Z 0100/0206 04008KT P6SM SCT015 SCT025 OVC060
      TEMPO 0100/0104 BKN015
     FM010400 02010KT P6SM OVC015
     FM011600 01014G20KT 6SM -SHRA SCT015 BKN025
     FM020000 01014KT P6SM OVC012=

USA.gov is the U.S. government's official web portal to all federal, state and local government web resources and services.